Aviosuperficie Airone LICL

Flugplatz Daten

Name: Aviosuperficie Airone

Ident: LICL

Lat: 37,11397667

Long: 14,21420574

Platzhöhe: 82 ft

IataCode:

City: Gela

Metar

2022/08/13 17:55
LICL 131755Z 28011KT 230V310 CAVOK 28/25 Q1010 RMK SKC QUK 2 QUL 0 VIS MAR 15 KM VIS MIN 9999

Taf

Gewünschte Webcam nicht vorhanden? Dann fügen Sie eine hinzu. Sie wird dann so schnell wie möglich freigeschaltet
Url: Title: